ADDS METAR Data

Data at: 0504 UTC 20 Apr 2018

METAR for:KWVL (Waterville/Lafleur A, ME, US)
Text:KWVL 200456Z AUTO 32005KT 10SM OVC090 02/M02 A2972 RMK AO2 SLP093 T00221017 400830022 FZRANO $
Temperature: 2.2°C ( 36°F)
Dewpoint: -1.7°C ( 29°F) [RH = 75%]
Pressure (altimeter):29.72 inches Hg (1006.5 mb) [Sea level pressure: 1009.3 mb]
Winds:from the NW (320 degrees) at 6 MPH (5 knots; 2.6 m/s)
Visibility:10 or more sm (16+ km)
Ceiling:9000 feet AGL
Clouds: overcast cloud deck at 9000 feet AGL
QC Flag:automated observation with no human augmentation; SOME DATA ABOVE MAY BE INACCURATE!!!"$" is an indication the sensor requires maintenance.